Terminal Aerodrome Forecast
Issued by NWS

Home | Current Version | Previous Version | Text Only | Print | Product List | Glossary On
Versions: 1 2 3 4 5 6 7 8 9 10 11 12 13 14 15 16 17
058
FTUS44 KLZK 231144
TAFHRO
TAF
KHRO 231144Z 2312/2412 28004KT 3SM BR SCT002 OVC015
      TEMPO 2312/2314 1/2SM FG VV002
     FM231500 31006KT P6SM VCSH SCT025 BKN060
     FM232000 32007KT P6SM -SHRA VCTS SCT030CB BKN100
     FM240200 32004KT P6SM SCT060 BKN250=

USA.gov is the U.S. government's official web portal to all federal, state and local government web resources and services.